Time;durP1;ratioP1;P1;durP2;ratioP2;P2;SDS_P1;SDS_P2;PMS_P1;PMS_P2;Temp;Humidity;BMP_temperature;BMP_pressure;BME280_temperature;BME280_humidity;BME280_pressure;Samples;Min_cycle;Max_cycle;Signal;HPM_P1;HPM_P2
2023/07/10 00:01:29;;;;;;;15.88;8.05;;;;;;;23.36;59.29;101916.44;4935645;28;125064;-80
2023/07/10 00:03:56;;;;;;;12.82;7.20;;;;;;;23.32;59.40;101915.81;4953520;28;125681;-80
2023/07/10 00:06:23;;;;;;;15.10;7.30;;;;;;;23.29;59.26;101910.66;4955679;28;114400;-80
2023/07/10 00:08:51;;;;;;;11.63;7.40;;;;;;;23.27;59.20;101906.38;4940456;28;115771;-80
2023/07/10 00:11:39;;;;;;;13.95;7.50;;;;;;;23.25;59.23;101908.34;4955692;28;122274;-80
2023/07/10 00:14:21;;;;;;;10.05;7.03;;;;;;;23.23;59.17;101907.63;4940192;28;123378;-80
2023/07/10 00:16:50;;;;;;;12.52;7.05;;;;;;;23.20;59.17;101905.16;4945240;28;114274;-80
2023/07/10 00:19:18;;;;;;;14.48;7.40;;;;;;;23.19;59.08;101914.22;4971516;28;113890;-80
2023/07/10 00:21:49;;;;;;;12.10;7.10;;;;;;;23.20;59.12;101915.97;4954763;28;123500;-80
2023/07/10 00:24:16;;;;;;;11.25;7.38;;;;;;;23.23;59.31;101913.03;4938203;28;123676;-80
2023/07/10 00:26:43;;;;;;;9.77;6.93;;;;;;;23.24;59.16;101912.03;4970932;28;115549;-80
2023/07/10 00:29:16;;;;;;;12.23;7.22;;;;;;;23.26;59.07;101910.06;4936784;28;115610;-80
2023/07/10 00:31:43;;;;;;;13.95;6.90;;;;;;;23.27;59.21;101914.50;4967209;28;124160;-80
2023/07/10 00:34:15;;;;;;;10.20;7.35;;;;;;;23.29;59.02;101916.06;4934088;28;123870;-81
2023/07/10 00:36:50;;;;;;;12.75;7.28;;;;;;;23.30;59.05;101911.50;4970582;28;113236;-80
2023/07/10 00:39:18;;;;;;;15.15;7.57;;;;;;;23.30;59.08;101906.09;4953240;28;113969;-80
2023/07/10 00:41:49;;;;;;;12.80;7.53;;;;;;;23.29;59.05;101907.09;4949859;28;124932;-80
2023/07/10 00:44:20;;;;;;;18.50;8.20;;;;;;;23.27;58.95;101900.97;4955714;28;123162;-80
2023/07/10 00:46:56;;;;;;;13.90;8.32;;;;;;;23.24;58.99;101903.91;4941157;28;115337;-80
2023/07/10 00:49:27;;;;;;;11.88;8.23;;;;;;;23.21;58.91;101913.16;4957013;28;114299;-80
2023/07/10 00:52:01;;;;;;;18.52;8.07;;;;;;;23.20;59.31;101894.34;4955919;28;124836;-80
2023/07/10 00:54:37;;;;;;;15.38;8.73;;;;;;;23.17;59.07;101900.88;4940180;28;122317;-80
2023/07/10 00:57:12;;;;;;;12.60;8.13;;;;;;;23.17;59.11;101900.00;4939952;28;112973;-80
2023/07/10 00:59:40;;;;;;;;;;;;;;;23.15;58.62;101896.56;4958450;28;113232;-80
2023/07/10 01:02:07;;;;;;;13.95;8.00;;;;;;;23.15;58.92;101899.25;4975959;28;126518;-80
2023/07/10 01:04:39;;;;;;;14.65;8.35;;;;;;;23.17;59.03;101894.59;4949449;28;123219;-81
2023/07/10 01:07:15;;;;;;;13.63;7.95;;;;;;;23.17;59.30;101900.00;4953711;28;114394;-80
2023/07/10 01:10:00;;;;;;;13.10;7.30;;;;;;;23.17;59.33;101900.00;4972225;28;113942;-80
2023/07/10 01:12:30;;;;;;;14.93;8.13;;;;;;;23.16;59.13;101903.69;4949064;28;123865;-80
2023/07/10 01:14:58;;;;;;;13.73;8.43;;;;;;;23.16;59.23;101909.09;4974627;28;123404;-80
2023/07/10 01:17:27;;;;;;;13.23;8.98;;;;;;;23.16;59.54;101922.63;4940369;28;116333;-80
2023/07/10 01:20:01;;;;;;;20.23;8.82;;;;;;;23.15;59.39;101923.59;4956975;28;116496;-80
2023/07/10 01:22:29;;;;;;;15.02;8.77;;;;;;;23.10;59.35;101916.72;4955019;28;125139;-79
2023/07/10 01:24:57;;;;;;;17.27;9.15;;;;;;;23.05;59.36;101918.91;4956613;28;123947;-80
2023/07/10 01:27:28;;;;;;;14.80;9.18;;;;;;;23.01;59.54;101912.03;4940821;28;112617;-80
2023/07/10 01:30:16;;;;;;;16.65;9.30;;;;;;;22.98;59.59;101915.00;4941546;28;114223;-80
2023/07/10 01:32:43;;;;;;;18.00;9.45;;;;;;;22.97;59.67;101910.56;4931101;28;123704;-80
2023/07/10 01:35:15;;;;;;;13.88;9.45;;;;;;;22.94;59.52;101902.69;4967661;28;123159;-80
2023/07/10 01:37:42;;;;;;;14.60;9.50;;;;;;;22.93;59.64;101914.50;4939592;28;112960;-80
2023/07/10 01:40:14;;;;;;;19.08;10.48;;;;;;;22.88;59.93;101922.94;4936399;28;115449;-80
2023/07/10 01:42:42;;;;;;;14.25;10.10;;;;;;;22.85;59.74;101922.34;4956879;28;124954;-80
2023/07/10 01:45:14;;;;;;;19.48;11.30;;;;;;;22.82;59.66;101917.19;4943648;28;121833;-80
2023/07/10 01:47:41;;;;;;;20.05;10.18;;;;;;;22.78;59.79;101915.72;4944665;28;113875;-80
2023/07/10 01:50:09;;;;;;;15.40;10.82;;;;;;;22.78;59.89;101921.13;4943968;28;113465;-81
2023/07/10 01:52:36;;;;;;;15.95;11.18;;;;;;;22.74;59.57;101925.91;4939762;28;122561;-81
2023/07/10 01:55:04;;;;;;;16.35;10.73;;;;;;;22.69;59.66;101918.16;4973427;28;124012;-80
2023/07/10 01:57:31;;;;;;;14.60;10.57;;;;;;;22.67;59.56;101913.88;4962035;28;114521;-80
2023/07/10 01:59:58;;;;;;;16.85;11.07;;;;;;;22.64;59.53;101904.19;4953926;28;113848;-80
2023/07/10 02:02:26;;;;;;;17.13;10.77;;;;;;;22.61;59.66;101909.81;4955427;28;123878;-80
2023/07/10 02:04:53;;;;;;;16.80;10.98;;;;;;;22.61;59.73;101920.63;4959935;28;125008;-80
2023/07/10 02:07:20;;;;;;;16.20;11.00;;;;;;;22.59;59.76;101921.75;4976339;28;114857;-80
2023/07/10 02:09:47;;;;;;;16.48;10.88;;;;;;;22.58;59.78;101928.09;4944756;28;114845;-80
2023/07/10 02:12:15;;;;;;;14.85;10.55;;;;;;;22.59;59.96;101921.75;4938957;28;123891;-80
2023/07/10 02:14:42;;;;;;;18.08;10.95;;;;;;;22.59;59.75;101922.59;4966579;28;122685;-80
2023/07/10 02:17:10;;;;;;;16.75;10.07;;;;;;;22.58;59.74;101915.44;4966803;28;115141;-80
2023/07/10 02:19:37;;;;;;;17.33;10.10;;;;;;;22.57;59.82;101929.94;4946366;28;115644;-80
2023/07/10 02:22:04;;;;;;;14.05;9.65;;;;;;;22.56;59.79;101922.81;4962110;28;124121;-80
2023/07/10 02:24:31;;;;;;;15.93;10.25;;;;;;;22.56;59.88;101925.53;4980063;28;124087;-80
2023/07/10 02:26:59;;;;;;;17.45;10.18;;;;;;;22.56;59.76;101939.03;4946403;28;113771;-80
2023/07/10 02:29:28;;;;;;;13.30;9.27;;;;;;;22.55;59.47;101932.78;4961196;28;114100;-80
2023/07/10 02:31:55;;;;;;;14.15;9.02;;;;;;;22.53;59.84;101933.88;4972682;28;125252;-80
2023/07/10 02:34:22;;;;;;;12.90;9.07;;;;;;;22.53;59.45;101950.06;4938841;28;124070;-81
2023/07/10 02:36:50;;;;;;;12.98;9.30;;;;;;;22.52;59.62;101948.34;4966119;28;113569;-80
2023/07/10 02:39:17;;;;;;;15.63;9.40;;;;;;;22.49;59.64;101945.88;4944677;28;113051;-81
2023/07/10 02:41:44;;;;;;;14.35;8.63;;;;;;;22.48;59.82;101941.47;4951861;28;125261;-81
2023/07/10 02:44:12;;;;;;;12.32;8.40;;;;;;;22.47;59.64;101950.53;4964870;28;122906;-81
2023/07/10 02:46:40;;;;;;;12.65;8.85;;;;;;;22.46;59.91;101957.78;4956955;28;115100;-80
2023/07/10 02:49:10;;;;;;;14.75;8.80;;;;;;;22.45;59.80;101958.78;4956632;28;114364;-80
2023/07/10 02:51:39;;;;;;;12.93;8.93;;;;;;;22.44;59.78;101950.78;4951709;28;124734;-81
2023/07/10 02:54:13;;;;;;;16.20;8.95;;;;;;;22.44;59.80;101953.50;4970214;28;123285;-81
2023/07/10 02:56:40;;;;;;;14.18;8.95;;;;;;;22.42;59.62;101952.75;4934737;28;116822;-81
2023/07/10 02:59:07;;;;;;;14.75;8.98;;;;;;;22.38;59.78;101944.03;4963089;28;114671;-81
2023/07/10 03:01:35;;;;;;;16.45;9.35;;;;;;;22.39;59.96;101947.59;4971612;28;123351;-80
2023/07/10 03:04:02;;;;;;;12.30;8.68;;;;;;;22.39;59.90;101944.88;4969338;28;124113;-81
2023/07/10 03:06:29;;;;;;;12.35;8.15;;;;;;;22.40;59.92;101949.31;4936522;28;115751;-80
2023/07/10 03:08:58;;;;;;;14.38;8.38;;;;;;;22.39;59.92;101952.97;4953881;28;112627;-81
2023/07/10 03:11:25;;;;;;;13.70;7.72;;;;;;;22.38;59.99;101951.25;4936832;28;122459;-81
2023/07/10 03:13:53;;;;;;;12.88;8.13;;;;;;;22.38;59.89;101952.13;4951065;28;124208;-81
2023/07/10 03:16:20;;;;;;;11.50;8.18;;;;;;;22.39;59.89;101958.38;4951916;28;114489;-81
2023/07/10 03:18:49;;;;;;;12.80;8.25;;;;;;;22.40;60.01;101955.56;4936124;28;115255;-81
2023/07/10 03:21:17;;;;;;;15.10;8.63;;;;;;;22.42;59.84;101944.66;4951415;28;125272;-81
2023/07/10 03:23:47;;;;;;;18.85;9.18;;;;;;;22.41;59.91;101951.88;4936248;28;122743;-80
2023/07/10 03:26:14;;;;;;;13.75;8.57;;;;;;;22.42;59.90;101947.34;4968347;28;114862;-81
2023/07/10 03:28:42;;;;;;;11.18;8.10;;;;;;;22.42;59.87;101969.81;4950068;28;113069;-81
2023/07/10 03:31:09;;;;;;;15.88;9.13;;;;;;;22.41;59.75;101967.22;4966166;28;124128;-81
2023/07/10 03:33:36;;;;;;;15.88;8.82;;;;;;;22.39;59.83;101975.44;4954866;28;123044;-81
2023/07/10 03:36:06;;;;;;;13.27;8.32;;;;;;;22.38;59.81;101989.03;4968668;28;114493;-81
2023/07/10 03:38:34;;;;;;;12.77;8.70;;;;;;;22.34;59.93;101992.00;4953317;28;114168;-80
2023/07/10 03:41:02;;;;;;;14.85;8.98;;;;;;;22.33;59.95;101998.34;4930064;28;125335;-80
2023/07/10 03:43:29;;;;;;;13.23;9.05;;;;;;;22.33;59.98;102003.75;4957004;28;123676;-81
2023/07/10 03:45:56;;;;;;;14.57;9.10;;;;;;;22.32;59.84;101996.66;4936104;28;114855;-80
2023/07/10 03:48:24;;;;;;;14.68;9.25;;;;;;;22.32;59.84;101985.84;4952935;28;114889;-80
2023/07/10 03:50:51;;;;;;;14.95;9.18;;;;;;;22.31;59.83;101989.53;4970595;28;124046;-81
2023/07/10 03:53:19;;;;;;;12.02;8.45;;;;;;;22.31;59.92;101994.91;4951473;28;126510;-81
2023/07/10 03:55:54;;;;;;;14.10;8.13;;;;;;;22.30;59.78;101998.63;4936881;28;115225;-81
2023/07/10 03:58:23;;;;;;;14.07;8.25;;;;;;;22.31;59.85;102000.31;4936853;28;115139;-81
2023/07/10 04:00:51;;;;;;;12.93;8.27;;;;;;;22.30;59.78;101997.72;4949244;28;123848;-80
2023/07/10 04:03:21;;;;;;;11.05;8.02;;;;;;;22.30;59.57;101993.22;4950299;28;124056;-81
2023/07/10 04:05:52;;;;;;;10.23;7.40;;;;;;;22.29;59.68;101991.47;4967825;28;114390;-81
2023/07/10 04:08:20;;;;;;;11.70;7.40;;;;;;;22.28;59.68;101992.47;4936018;28;115039;-80
2023/07/10 04:10:52;;;;;;;11.27;6.90;;;;;;;22.28;59.59;101994.28;4934031;28;123671;-80
2023/07/10 04:13:19;;;;;;;10.95;7.25;;;;;;;22.28;59.53;102000.56;4965134;28;125145;-81
2023/07/10 04:16:00;;;;;;;12.75;7.15;;;;;;;22.26;59.50;101997.09;4952743;28;114606;-80
2023/07/10 04:18:29;;;;;;;10.50;6.50;;;;;;;22.25;59.44;102000.78;4968176;28;113503;-81
2023/07/10 04:20:58;;;;;;;12.77;6.85;;;;;;;22.24;59.38;102004.41;4969197;28;124295;-80
2023/07/10 04:23:25;;;;;;;15.07;6.55;;;;;;;22.20;59.35;102002.94;4951321;28;124651;-81
2023/07/10 04:25:53;;;;;;;12.82;6.65;;;;;;;22.20;59.39;102008.34;4952906;28;114227;-81
2023/07/10 04:28:20;;;;;;;11.07;6.78;;;;;;;22.17;59.28;102003.19;4934208;28;114914;-80
2023/07/10 04:30:48;;;;;;;8.93;5.95;;;;;;;22.12;59.46;102017.03;4936033;28;126069;-80
2023/07/10 04:33:15;;;;;;;10.55;6.07;;;;;;;22.10;59.38;102020.81;4936571;28;124216;-81
2023/07/10 04:35:50;;;;;;;12.50;6.75;;;;;;;22.09;59.27;102027.19;4961216;28;115104;-81
2023/07/10 04:38:17;;;;;;;9.00;5.53;;;;;;;22.07;59.22;102012.94;4952847;28;114531;-81
2023/07/10 04:40:52;;;;;;;9.23;5.82;;;;;;;22.06;59.25;102017.47;4957533;28;125190;-81
2023/07/10 04:43:20;;;;;;;9.32;5.88;;;;;;;22.05;59.37;102020.28;4949912;28;124448;-81
2023/07/10 04:45:48;;;;;;;9.65;5.97;;;;;;;22.05;59.38;102009.50;4952726;28;114866;-80
2023/07/10 04:48:15;;;;;;;9.98;5.95;;;;;;;22.04;59.44;102008.66;4972583;28;113773;-81
2023/07/10 04:50:48;;;;;;;10.90;6.03;;;;;;;22.05;59.33;102009.50;4983386;28;124002;-80
2023/07/10 04:53:16;;;;;;;8.23;5.82;;;;;;;22.06;59.48;102011.25;4937096;28;123026;-81
2023/07/10 04:55:44;;;;;;;8.68;5.72;;;;;;;22.09;59.32;102008.28;4951780;28;113413;-81
2023/07/10 04:58:11;;;;;;;9.55;5.68;;;;;;;22.12;59.79;102010.78;4969904;28;113371;-81
2023/07/10 05:00:38;;;;;;;11.13;6.20;;;;;;;22.17;59.74;102014.00;4956148;28;125056;-81
2023/07/10 05:03:06;;;;;;;10.30;6.00;;;;;;;22.24;59.64;102023.31;4952427;28;123878;-81
2023/07/10 05:05:33;;;;;;;9.50;5.75;;;;;;;22.29;59.50;102023.88;4949760;28;113944;-80
2023/07/10 05:08:01;;;;;;;8.85;5.50;;;;;;;22.33;59.40;102025.34;4950954;28;113094;-80
2023/07/10 05:10:28;;;;;;;9.13;6.13;;;;;;;22.38;59.34;102021.44;4952189;28;123975;-81
2023/07/10 05:12:55;;;;;;;9.77;6.28;;;;;;;22.43;59.28;102030.03;4967555;28;123768;-81
2023/07/10 05:15:23;;;;;;;10.02;6.03;;;;;;;22.46;59.12;102029.81;4969623;28;113538;-80
2023/07/10 05:17:50;;;;;;;10.60;6.80;;;;;;;22.50;59.04;102036.72;4956028;28;113848;-81
2023/07/10 05:20:17;;;;;;;11.85;7.30;;;;;;;22.53;59.08;102036.47;4938910;28;125183;-80
2023/07/10 05:22:44;;;;;;;10.60;6.50;;;;;;;22.57;58.89;102037.97;4954132;28;125225;-80
2023/07/10 05:25:11;;;;;;;11.18;6.82;;;;;;;22.60;58.99;102035.00;4960051;28;114869;-80
2023/07/10 05:27:39;;;;;;;9.20;6.78;;;;;;;22.63;58.83;102037.47;4962870;28;114628;-81
2023/07/10 05:30:06;;;;;;;9.73;7.28;;;;;;;22.64;58.63;102039.22;4943581;28;123865;-81
2023/07/10 05:32:34;;;;;;;11.18;7.03;;;;;;;22.64;58.64;102044.63;4944491;28;124605;-80
2023/07/10 05:35:01;;;;;;;10.75;6.90;;;;;;;22.63;58.42;102034.78;4958124;28;115082;-81
2023/07/10 05:37:28;;;;;;;13.50;7.22;;;;;;;22.63;58.31;102037.47;4955725;28;113999;-81
2023/07/10 05:39:55;;;;;;;11.18;6.70;;;;;;;22.63;58.33;102037.47;4969846;28;123970;-80
2023/07/10 05:42:23;;;;;;;13.68;7.43;;;;;;;22.66;58.33;102039.94;4961293;28;124261;-81
2023/07/10 05:44:50;;;;;;;10.82;6.47;;;;;;;22.67;58.33;102033.56;4971002;28;113916;-80
2023/07/10 05:47:18;;;;;;;12.40;7.10;;;;;;;22.69;58.22;102041.53;4942232;28;114229;-80
2023/07/10 05:49:45;;;;;;;9.93;7.40;;;;;;;22.69;58.30;102041.53;4965710;28;123991;-81
2023/07/10 05:52:12;;;;;;;13.07;6.75;;;;;;;22.70;58.20;102043.28;4955615;28;124968;-80
2023/07/10 05:54:39;;;;;;;10.35;6.50;;;;;;;22.72;58.16;102047.56;4975060;28;114302;-81
2023/07/10 05:57:07;;;;;;;12.13;6.53;;;;;;;22.73;58.05;102049.31;4979918;28;113697;-81
2023/07/10 05:59:34;;;;;;;11.18;6.20;;;;;;;22.77;58.24;102043.66;4985060;28;123179;-81
2023/07/10 06:02:01;;;;;;;9.05;6.38;;;;;;;22.82;58.25;102041.47;4962764;28;123662;-80
2023/07/10 06:04:28;;;;;;;8.38;5.55;;;;;;;22.85;58.06;102041.19;4949125;28;114385;-81
2023/07/10 06:06:55;;;;;;;6.70;5.20;;;;;;;22.88;57.95;102052.63;4975006;28;113985;-81
2023/07/10 06:09:23;;;;;;;8.07;5.07;;;;;;;22.92;57.91;102051.44;4978079;28;123655;-80
2023/07/10 06:11:50;;;;;;;7.50;5.43;;;;;;;22.99;57.87;102049.09;4959483;28;126249;-81
2023/07/10 06:14:17;;;;;;;9.13;4.63;;;;;;;23.06;57.77;102044.97;4937958;28;116089;-81
2023/07/10 06:16:44;;;;;;;7.32;4.30;;;;;;;23.11;57.47;102037.34;4942061;28;114293;-80
2023/07/10 06:19:11;;;;;;;8.15;4.28;;;;;;;23.16;56.99;102041.53;4959379;28;123032;-80
2023/07/10 06:21:40;;;;;;;6.93;4.00;;;;;;;23.17;56.78;102043.25;4967618;28;122758;-81
2023/07/10 06:24:08;;;;;;;6.75;3.97;;;;;;;23.20;56.83;102040.31;4941755;28;113383;-80
2023/07/10 06:26:36;;;;;;;10.75;3.55;;;;;;;23.26;56.75;102045.22;4943473;28;113141;-80
2023/07/10 06:29:03;;;;;;;6.55;3.53;;;;;;;23.31;56.52;102053.81;4971171;28;123432;-81
2023/07/10 06:31:30;;;;;;;7.47;3.38;;;;;;;23.39;56.51;102045.94;4952548;28;123552;-80
2023/07/10 06:33:58;;;;;;;6.57;3.30;;;;;;;23.47;56.29;102048.91;4948152;28;114536;-80
2023/07/10 06:36:25;;;;;;;6.95;3.10;;;;;;;23.61;56.05;102052.34;4934004;28;115281;-80
2023/07/10 06:38:52;;;;;;;7.22;3.17;;;;;;;23.74;56.03;102046.78;4949777;28;124044;-80
2023/07/10 06:41:19;;;;;;;6.32;3.20;;;;;;;23.87;55.94;102051.09;4937965;28;123294;-81
2023/07/10 06:43:46;;;;;;;7.07;3.08;;;;;;;24.02;55.65;102048.09;4952208;28;113018;-80
2023/07/10 06:46:13;;;;;;;5.53;2.60;;;;;;;24.14;55.54;102057.91;4954500;28;112874;-80
2023/07/10 06:48:42;;;;;;;5.32;2.70;;;;;;;24.28;54.96;102060.31;4968125;28;124350;-80
2023/07/10 06:51:09;;;;;;;5.45;2.65;;;;;;;24.42;54.60;102071.81;4949945;28;122438;-80
2023/07/10 06:53:37;;;;;;;6.78;2.53;;;;;;;24.53;54.02;102063.69;4972619;28;114223;-80
2023/07/10 06:56:05;;;;;;;6.07;2.42;;;;;;;24.59;53.56;102071.28;4948434;28;114369;-82
2023/07/10 06:58:34;;;;;;;8.77;2.80;;;;;;;24.68;53.54;102067.78;4964286;28;124185;-81
2023/07/10 07:01:02;;;;;;;7.45;2.30;;;;;;;24.79;53.23;102068.69;4943766;28;125289;-80
2023/07/10 07:03:30;;;;;;;7.88;2.35;;;;;;;24.91;53.41;102067.66;4958972;28;114423;-81
2023/07/10 07:05:58;;;;;;;9.00;2.53;;;;;;;25.06;52.51;102071.72;4963348;28;116784;-81
2023/07/10 07:08:25;;;;;;;5.57;2.03;;;;;;;25.17;52.44;102072.66;4991206;28;124381;-81
2023/07/10 07:10:54;;;;;;;7.45;2.33;;;;;;;25.29;51.51;102071.59;4942502;28;122349;-81
2023/07/10 07:13:22;;;;;;;8.05;2.08;;;;;;;25.37;51.46;102074.50;4935964;28;114007;-81
2023/07/10 07:15:53;;;;;;;5.97;2.10;;;;;;;25.43;51.10;102073.94;4947421;28;112661;-82
2023/07/10 07:18:22;;;;;;;6.97;2.10;;;;;;;25.50;50.92;102067.97;4950905;28;123156;-83
2023/07/10 07:20:54;;;;;;;6.68;2.30;;;;;;;25.61;50.96;102074.16;4959095;28;124931;-81
2023/07/10 07:23:22;;;;;;;8.20;2.45;;;;;;;25.75;50.52;102072.91;4919389;28;115999;-82
2023/07/10 07:25:49;;;;;;;5.43;2.40;;;;;;;25.87;50.34;102075.53;4968224;28;113810;-81
2023/07/10 07:28:16;;;;;;;5.57;2.30;;;;;;;25.96;50.04;102074.72;4935628;28;125344;-80
2023/07/10 07:30:47;;;;;;;6.35;2.35;;;;;;;26.04;50.44;102077.59;4937388;28;123336;-80
2023/07/10 07:33:17;;;;;;;7.50;3.10;;;;;;;26.17;49.77;102072.75;4951596;28;115453;-80
2023/07/10 07:35:44;;;;;;;6.15;2.70;;;;;;;26.26;49.69;102075.59;4937092;28;115136;-80
2023/07/10 07:38:13;;;;;;;5.82;2.50;;;;;;;26.37;49.74;102083.59;4939162;28;124910;-79
2023/07/10 07:40:40;;;;;;;6.63;2.05;;;;;;;26.45;48.66;102081.06;4959452;28;124925;-80
2023/07/10 07:43:07;;;;;;;7.38;2.17;;;;;;;26.51;49.08;102075.03;4944811;28;115308;-80
2023/07/10 07:45:34;;;;;;;5.88;2.13;;;;;;;26.59;49.05;102077.91;4951293;28;114473;-80
2023/07/10 07:48:02;;;;;;;7.90;2.30;;;;;;;26.70;47.81;102073.34;4938093;28;123737;-81
2023/07/10 07:50:29;;;;;;;5.65;2.30;;;;;;;26.77;48.05;102074.47;4944161;28;122164;-81
2023/07/10 07:52:56;;;;;;;5.40;2.03;;;;;;;26.87;47.60;102086.19;4934628;28;115236;-80
2023/07/10 07:55:24;;;;;;;4.95;2.05;;;;;;;26.96;47.88;102090.75;4918675;28;115352;-80
2023/07/10 07:57:51;;;;;;;6.38;2.30;;;;;;;27.05;47.62;102096.28;4937362;28;124869;-80
2023/07/10 08:00:18;;;;;;;6.63;2.40;;;;;;;27.11;47.18;102093.00;4950561;28;124731;-80
2023/07/10 08:02:49;;;;;;;6.30;1.83;;;;;;;27.14;46.72;102081.81;4924152;28;116039;-80
2023/07/10 08:05:16;;;;;;;6.95;2.05;;;;;;;27.20;46.45;102092.13;4967545;28;115955;-80
2023/07/10 08:08:08;;;;;;;6.30;2.03;;;;;;;27.24;46.21;102093.53;4937681;28;124137;-80
2023/07/10 08:10:44;;;;;;;7.68;2.22;;;;;;;27.27;45.82;102085.09;4935585;28;124360;-82
2023/07/10 08:13:20;;;;;;;6.78;2.50;;;;;;;27.29;45.81;102080.34;4937224;28;114548;-83
2023/07/10 08:15:48;;;;;;;8.57;2.35;;;;;;;27.32;45.68;102074.63;4951545;28;114957;-82
2023/07/10 08:18:17;;;;;;;6.13;2.40;;;;;;;27.34;45.26;102078.06;4948579;28;125131;-83
2023/07/10 08:20:45;;;;;;;6.47;2.20;;;;;;;27.35;45.26;102074.34;4947989;28;123020;-83
2023/07/10 08:23:21;;;;;;;7.85;2.33;;;;;;;27.40;45.36;102064.88;4964873;28;114959;-83
2023/07/10 08:25:51;;;;;;;4.85;2.10;;;;;;;27.49;45.58;102072.97;4933999;28;114388;-83
2023/07/10 08:28:36;;;;;;;5.45;2.20;;;;;;;27.59;45.61;102070.22;4952401;28;123078;-83
2023/07/10 08:31:06;;;;;;;6.45;2.50;;;;;;;27.65;45.26;102063.31;4936870;28;123087;-83
2023/07/10 08:33:35;;;;;;;6.75;2.53;;;;;;;27.72;45.66;102070.72;4951536;28;113291;-83
2023/07/10 08:36:06;;;;;;;7.50;2.50;;;;;;;27.80;45.40;102060.94;4950626;28;114407;-83
2023/07/10 08:38:36;;;;;;;7.05;2.33;;;;;;;27.86;45.40;102071.19;4932914;28;125245;-83
2023/07/10 08:41:18;;;;;;;9.13;2.63;;;;;;;27.89;45.33;102066.34;4929125;28;125211;-83
2023/07/10 08:43:46;;;;;;;5.32;2.38;;;;;;;27.94;45.03;102061.28;4956741;28;114646;-83
2023/07/10 08:46:27;;;;;;;7.53;2.60;;;;;;;28.01;45.02;102068.84;4954525;28;114757;-83
2023/07/10 08:49:20;;;;;;;6.63;2.28;;;;;;;28.09;45.25;102066.22;4948025;28;124080;-83
2023/07/10 08:52:01;;;;;;;7.85;2.67;;;;;;;28.19;44.96;102066.16;4978798;28;123578;-83
2023/07/10 08:54:29;;;;;;;4.13;2.00;;;;;;;28.26;44.95;102069.97;4948064;28;113126;-83
2023/07/10 08:57:27;;;;;;;5.57;2.20;;;;;;;28.33;44.22;102079.19;4975731;28;114598;-84
2023/07/10 09:00:04;;;;;;;5.05;2.10;;;;;;;28.35;43.75;102060.84;4961243;28;123963;-83
2023/07/10 09:02:59;;;;;;;6.43;1.80;;;;;;;28.35;43.56;102080.78;4947362;28;125252;-83
2023/07/10 09:05:37;;;;;;;6.35;1.75;;;;;;;28.37;43.52;102069.72;4959536;28;114577;-83
2023/07/10 09:08:11;;;;;;;3.92;1.70;;;;;;;28.37;43.63;102069.72;4955503;28;114006;-82
2023/07/10 09:10:49;;;;;;;4.57;1.90;;;;;;;28.42;43.41;102070.09;4970915;28;124892;-83
2023/07/10 09:13:24;;;;;;;5.28;1.77;;;;;;;28.46;42.81;102068.78;4962846;28;124418;-82
2023/07/10 09:15:56;;;;;;;5.07;1.92;;;;;;;28.49;42.63;102073.06;4936936;28;113826;-84
2023/07/10 09:18:48;;;;;;;6.97;2.00;;;;;;;28.51;42.81;102077.34;4935860;28;114179;-84
2023/07/10 09:21:19;;;;;;;7.97;2.15;;;;;;;28.57;42.88;102075.03;4937590;28;125153;-83
2023/07/10 09:23:48;;;;;;;7.93;1.92;;;;;;;28.61;42.45;102081.88;4953439;28;123043;-83
2023/07/10 09:26:21;;;;;;;6.95;1.75;;;;;;;28.62;42.51;102089.06;4974081;28;113907;-83
2023/07/10 09:29:14;;;;;;;5.10;1.90;;;;;;;28.62;42.47;102084.44;4955959;28;114371;-83
2023/07/10 09:32:07;;;;;;;5.80;1.95;;;;;;;28.65;42.08;102077.81;4924456;28;124054;-84
2023/07/10 09:34:43;;;;;;;4.95;1.67;;;;;;;28.67;41.10;102073.06;4975554;28;124376;-83
2023/07/10 09:37:13;;;;;;;4.70;1.60;;;;;;;28.65;41.31;102067.78;4947534;28;114407;-83
2023/07/10 09:39:43;;;;;;;4.25;1.60;;;;;;;28.65;41.37;102066.91;4962691;28;115660;-83
2023/07/10 09:42:16;;;;;;;4.97;1.70;;;;;;;28.69;41.48;102069.16;4938190;28;123125;-83
2023/07/10 09:44:55;;;;;;;3.63;1.58;;;;;;;28.73;41.75;102064.25;4948237;28;124824;-83
2023/07/10 09:47:39;;;;;;;3.78;1.70;;;;;;;28.82;41.35;102063.31;4964279;28;114552;-84
2023/07/10 09:50:17;;;;;;;5.47;1.50;;;;;;;28.91;41.17;102067.81;4938703;28;113688;-83
2023/07/10 09:52:52;;;;;;;6.80;1.80;;;;;;;28.97;40.45;102065.44;4931762;28;124417;-84
2023/07/10 09:55:23;;;;;;;4.40;1.63;;;;;;;29.02;40.89;102063.09;4964212;28;124343;-83
2023/07/10 09:57:50;;;;;;;5.00;1.77;;;;;;;29.09;41.00;102064.16;4957287;28;115383;-82
2023/07/10 10:00:19;;;;;;;4.80;1.73;;;;;;;29.14;40.58;102056.38;4953228;28;114004;-84
2023/07/10 10:03:00;;;;;;;5.40;1.65;;;;;;;29.16;40.46;102057.06;4938017;28;125255;-83
2023/07/10 10:05:30;;;;;;;4.85;1.42;;;;;;;29.20;39.64;102061.19;4967588;28;122562;-83
2023/07/10 10:08:10;;;;;;;4.55;1.20;;;;;;;29.18;39.05;102065.94;4955977;28;113954;-83
2023/07/10 10:10:38;;;;;;;7.57;1.83;;;;;;;29.15;39.37;102060.81;4948671;28;113891;-82
2023/07/10 10:13:22;;;;;;;5.28;1.73;;;;;;;29.13;39.73;102057.38;4934895;28;124877;-82
2023/07/10 10:16:11;;;;;;;5.13;1.80;;;;;;;29.15;40.14;102063.53;4951807;28;123465;-85
2023/07/10 10:18:49;;;;;;;5.32;2.08;;;;;;;29.19;39.98;102054.00;4942540;28;112830;-83
2023/07/10 10:21:19;;;;;;;6.88;1.80;;;;;;;29.30;39.94;102050.13;4969012;28;113974;-82
2023/07/10 10:23:57;;;;;;;3.50;1.50;;;;;;;29.40;39.93;102055.47;4946940;28;123796;-83
2023/07/10 10:26:54;;;;;;;4.53;1.60;;;;;;;29.47;39.53;102051.91;4952695;28;123765;-83
2023/07/10 10:29:46;;;;;;;5.70;1.77;;;;;;;29.54;39.45;102057.59;4922583;28;116142;-83
2023/07/10 10:32:15;;;;;;;3.13;1.40;;;;;;;29.58;39.29;102056.22;4951936;28;114440;-83
2023/07/10 10:35:01;;;;;;;3.67;1.65;;;;;;;29.63;39.42;102051.13;4969198;28;124235;-83
2023/07/10 10:38:02;;;;;;;4.07;1.42;;;;;;;29.69;39.53;102055.09;4948979;28;121916;-83
2023/07/10 10:41:07;;;;;;;5.13;1.58;;;;;;;29.73;39.63;102061.06;4959795;28;114900;-84
2023/07/10 10:43:53;;;;;;;4.97;1.80;;;;;;;29.77;39.21;102057.00;4952575;28;113385;-84
2023/07/10 10:46:45;;;;;;;5.18;1.45;;;;;;;29.80;38.32;102063.00;4928855;28;124085;-83
2023/07/10 10:49:36;;;;;;;4.70;1.55;;;;;;;29.83;38.64;102056.34;4955764;28;125145;-84
2023/07/10 10:52:30;;;;;;;5.47;1.63;;;;;;;29.86;39.13;102056.03;4964443;28;115172;-83
2023/07/10 10:55:19;;;;;;;;;;;;;;;29.93;39.98;102065.22;4945883;28;115259;-83
2023/07/10 10:57:56;;;;;;;6.15;1.50;;;;;;;29.98;38.90;102060.13;4949797;28;124989;-83
2023/07/10 11:00:50;;;;;;;6.20;1.40;;;;;;;30.03;38.34;102051.44;4952135;28;124761;-83
2023/07/10 11:03:38;;;;;;;4.38;1.60;;;;;;;30.11;38.41;102058.78;4939517;28;115994;-83
2023/07/10 11:06:26;;;;;;;4.78;1.70;;;;;;;30.19;38.31;102045.13;4932683;28;112862;-83
2023/07/10 11:09:00;;;;;;;4.93;1.40;;;;;;;30.25;38.02;102049.91;4953440;28;124078;-82
2023/07/10 11:11:31;;;;;;;5.25;1.48;;;;;;;30.28;37.09;102057.78;4935864;28;122875;-82
2023/07/10 11:14:02;;;;;;;6.65;1.98;;;;;;;30.25;37.16;102060.84;4946327;28;113925;-82
2023/07/10 11:16:33;;;;;;;5.47;1.58;;;;;;;30.21;37.69;102064.94;4932070;28;113076;-83
2023/07/10 11:19:13;;;;;;;7.00;1.75;;;;;;;30.19;37.28;102061.53;4920392;28;123363;-83
2023/07/10 11:21:40;;;;;;;6.38;1.83;;;;;;;30.16;37.11;102061.84;4933112;28;124497;-82
2023/07/10 11:24:36;;;;;;;7.03;1.77;;;;;;;30.06;37.26;102057.44;4949536;28;115665;-82
2023/07/10 11:27:37;;;;;;;5.65;1.70;;;;;;;30.03;38.04;102057.75;4918038;28;115655;-82
2023/07/10 11:30:12;;;;;;;5.57;1.70;;;;;;;30.07;38.09;102061.00;4945910;28;124612;-82
2023/07/10 11:33:04;;;;;;;7.38;2.03;;;;;;;30.11;38.30;102053.31;4949430;28;125958;-82
2023/07/10 11:35:33;;;;;;;4.30;1.67;;;;;;;30.14;37.76;102058.44;4945087;28;115187;-82